createdAt,value
2023-03-26T00:02:24.724Z,70.15
2023-03-26T00:07:27.897Z,70.48
2023-03-26T00:12:31.945Z,70.54
2023-03-26T00:17:34.697Z,70.21
2023-03-26T00:22:37.581Z,70.45
2023-03-26T00:27:41.798Z,70.60
2023-03-26T00:32:44.615Z,70.25
2023-03-26T00:37:58.273Z,70.23
2023-03-26T00:43:02.521Z,70.34
2023-03-26T00:48:05.728Z,70.49
2023-03-26T00:53:11.993Z,70.51
2023-03-26T00:58:16.665Z,70.62
2023-03-26T01:03:26.926Z,70.33
2023-03-26T01:08:33.331Z,70.69
2023-03-26T01:13:39.347Z,70.31
2023-03-26T01:18:42.118Z,70.39
2023-03-26T01:23:48.985Z,70.66
2023-03-26T01:28:56.758Z,70.63
2023-03-26T01:34:03.754Z,70.48
2023-03-26T01:39:09.968Z,70.86
2023-03-26T01:44:19.262Z,70.49
2023-03-26T01:49:22.268Z,70.61
2023-03-26T01:54:29.659Z,70.75
2023-03-26T01:59:50.370Z,70.76
2023-03-26T02:04:56.962Z,70.71
2023-03-26T02:10:05.535Z,70.67
2023-03-26T02:15:11.437Z,70.75
2023-03-26T02:20:14.961Z,70.53
2023-03-26T02:25:19.528Z,70.63
2023-03-26T02:30:26.666Z,70.62
2023-03-26T02:35:32.489Z,70.41
2023-03-26T02:40:37.395Z,70.61
2023-03-26T02:45:42.919Z,70.30
2023-03-26T02:51:06.639Z,70.32
2023-03-26T02:56:33.923Z,70.48
2023-03-26T03:02:07.122Z,70.71
2023-03-26T03:07:14.316Z,70.65
2023-03-26T03:12:17.049Z,70.79
2023-03-26T03:17:21.761Z,70.71
2023-03-26T03:22:24.620Z,70.57
2023-03-26T03:27:27.382Z,70.64
2023-03-26T03:32:42.764Z,70.94
2023-03-26T03:37:46.194Z,70.89
2023-03-26T03:42:49.055Z,70.48
2023-03-26T03:48:02.882Z,70.73
2023-03-26T03:53:18.487Z,70.48
2023-03-26T03:58:28.013Z,71.00
2023-03-26T04:03:38.804Z,70.55
2023-03-26T04:08:47.293Z,70.58
2023-03-26T04:13:50.269Z,70.56
2023-03-26T04:19:10.703Z,70.62
2023-03-26T04:24:13.775Z,70.73
2023-03-26T04:29:44.038Z,70.92
2023-03-26T04:34:53.802Z,70.62
2023-03-26T04:40:00.458Z,70.76
2023-03-26T04:45:14.754Z,70.38
2023-03-26T04:50:22.455Z,70.63
2023-03-26T04:55:27.148Z,70.85
2023-03-26T05:00:39.172Z,70.73
2023-03-26T05:05:43.406Z,70.86
2023-03-26T05:10:46.475Z,70.80
2023-03-26T05:15:55.588Z,71.00
2023-03-26T05:21:11.137Z,70.80
2023-03-26T05:26:15.682Z,70.82
2023-03-26T05:31:21.086Z,70.53
2023-03-26T05:36:28.285Z,70.53
2023-03-26T05:41:44.023Z,70.40
2023-03-26T05:46:47.060Z,70.54
2023-03-26T05:51:57.803Z,70.48
2023-03-26T05:57:28.392Z,70.71
2023-03-26T06:03:00.760Z,70.32
2023-03-26T06:08:31.225Z,70.38
2023-03-26T06:13:33.932Z,70.45
2023-03-26T06:18:37.303Z,70.71
2023-03-26T06:24:00.789Z,70.60
2023-03-26T06:29:25.979Z,70.51
2023-03-26T06:34:54.704Z,70.34
2023-03-26T06:39:59.052Z,70.29
2023-03-26T06:45:20.442Z,70.34
2023-03-26T06:50:48.949Z,70.70
2023-03-26T06:56:22.284Z,70.44
2023-03-26T07:01:34.808Z,70.22
2023-03-26T07:06:55.943Z,70.35
2023-03-26T07:12:18.484Z,70.24
2023-03-26T07:17:39.914Z,70.17
2023-03-26T07:22:57.920Z,70.22
2023-03-26T07:28:16.963Z,70.14
2023-03-26T07:33:51.981Z,70.44
2023-03-26T07:39:32.201Z,70.24
2023-03-26T07:45:04.523Z,69.93
2023-03-26T07:50:19.830Z,70.46
2023-03-26T07:55:48.000Z,70.42
2023-03-26T08:01:23.101Z,70.07
2023-03-26T08:06:33.738Z,70.67
2023-03-26T08:11:59.539Z,70.30
2023-03-26T08:17:08.827Z,70.51
2023-03-26T08:22:16.732Z,70.38
2023-03-26T08:27:23.975Z,70.43
2023-03-26T08:32:28.713Z,70.61
2023-03-26T08:37:31.667Z,70.34
2023-03-26T08:43:23.532Z,70.35
2023-03-26T08:48:51.267Z,70.52
2023-03-26T08:54:06.521Z,70.47
2023-03-26T08:59:44.760Z,70.68
2023-03-26T09:05:41.123Z,70.33
2023-03-26T09:11:18.277Z,70.27
2023-03-26T09:17:02.430Z,70.46
2023-03-26T09:22:28.440Z,70.31
2023-03-26T09:27:41.737Z,70.51
2023-03-26T09:33:17.709Z,70.57
2023-03-26T09:38:38.272Z,70.30
2023-03-26T09:43:55.775Z,70.30
2023-03-26T09:49:11.784Z,68.66
2023-03-26T09:54:46.376Z,67.22
2023-03-26T10:00:10.814Z,65.36
2023-03-26T10:05:28.208Z,63.76
2023-03-26T10:10:37.026Z,62.02
2023-03-26T10:15:53.318Z,60.68
2023-03-26T10:21:01.093Z,60.48
2023-03-26T10:26:27.141Z,59.94
2023-03-26T10:31:44.785Z,59.49
2023-03-26T10:36:51.507Z,59.60
2023-03-26T10:42:00.526Z,59.59
2023-03-26T10:47:14.297Z,59.29
2023-03-26T10:52:20.820Z,59.36
2023-03-26T10:57:35.145Z,59.70
2023-03-26T11:02:41.655Z,59.67
2023-03-26T11:07:51.708Z,60.22
2023-03-26T11:12:57.001Z,60.52
2023-03-26T11:18:26.040Z,60.78
2023-03-26T11:23:36.007Z,60.63
2023-03-26T11:29:03.552Z,60.75
2023-03-26T11:34:15.699Z,60.93
2023-03-26T11:39:23.449Z,61.87
2023-03-26T11:44:28.771Z,61.70
2023-03-26T11:49:33.353Z,62.39
2023-03-26T11:54:36.925Z,62.18
2023-03-26T11:59:55.822Z,62.79
2023-03-26T12:05:17.861Z,63.40
2023-03-26T12:10:29.492Z,63.63
2023-03-26T12:15:32.664Z,63.49
2023-03-26T12:21:04.527Z,64.02
2023-03-26T12:26:15.904Z,64.14
2023-03-26T12:31:19.671Z,64.23
2023-03-26T12:36:26.602Z,64.46
2023-03-26T12:43:40.206Z,64.53
2023-03-26T12:47:57.132Z,65.33
2023-03-26T12:53:06.800Z,65.21
2023-03-26T12:58:23.604Z,66.86
2023-03-26T13:03:41.773Z,66.63
2023-03-26T13:09:26.321Z,66.66
2023-03-26T13:14:52.766Z,66.07
2023-03-26T13:20:01.938Z,66.55
2023-03-26T13:25:18.187Z,67.14
2023-03-26T13:30:31.118Z,67.04
2023-03-26T13:35:37.649Z,67.02
2023-03-26T13:40:47.898Z,67.36
2023-03-26T13:45:57.420Z,67.29
2023-03-26T13:51:04.887Z,67.21
2023-03-26T13:56:11.369Z,67.72
2023-03-26T14:01:17.482Z,67.59
2023-03-26T14:06:31.983Z,67.82
2023-03-26T14:11:43.599Z,68.19
2023-03-26T14:16:51.516Z,68.42
2023-03-26T14:22:18.833Z,68.32
2023-03-26T14:27:45.603Z,68.79
2023-03-26T14:33:03.203Z,68.68
2023-03-26T14:38:25.028Z,68.38
2023-03-26T14:43:57.080Z,68.24
2023-03-26T14:49:10.925Z,68.67
2023-03-26T14:54:15.862Z,68.83
2023-03-26T14:59:47.444Z,69.20
2023-03-26T15:05:19.464Z,69.01
2023-03-26T15:10:49.582Z,69.60
2023-03-26T15:16:38.154Z,69.07
2023-03-26T15:22:18.145Z,69.25
2023-03-26T15:27:51.963Z,69.52
2023-03-26T15:33:14.260Z,69.49
2023-03-26T15:38:57.118Z,69.47
2023-03-26T15:44:36.141Z,69.62
2023-03-26T15:49:52.161Z,69.68
2023-03-26T15:54:59.598Z,69.66
2023-03-26T16:00:22.768Z,70.23
2023-03-26T16:05:33.274Z,69.99
2023-03-26T16:10:40.875Z,69.93
2023-03-26T16:15:45.309Z,70.33
2023-03-26T16:20:50.940Z,70.29
2023-03-26T16:26:08.999Z,70.42
2023-03-26T16:31:38.839Z,70.35
2023-03-26T16:36:44.302Z,70.35
2023-03-26T16:42:06.114Z,70.68
2023-03-26T16:47:29.400Z,70.35
2023-03-26T16:52:42.813Z,70.42
2023-03-26T16:57:56.009Z,70.60
2023-03-26T17:03:12.923Z,70.78
2023-03-26T17:08:18.994Z,70.81
2023-03-26T17:13:45.893Z,70.99
2023-03-26T17:18:55.484Z,71.07
2023-03-26T17:24:15.592Z,71.07
2023-03-26T17:29:33.939Z,71.21
2023-03-26T17:34:56.540Z,71.34
2023-03-26T17:40:35.835Z,71.41
2023-03-26T17:45:39.343Z,71.67
2023-03-26T17:50:48.601Z,71.50
2023-03-26T17:55:52.156Z,71.88
2023-03-26T18:01:02.072Z,71.60
2023-03-26T18:06:12.076Z,71.92
2023-03-26T18:11:36.833Z,72.08
2023-03-26T18:16:42.242Z,72.12
2023-03-26T18:21:50.017Z,71.84
2023-03-26T18:26:56.014Z,72.19
2023-03-26T18:32:02.466Z,71.89
2023-03-26T18:37:18.150Z,72.00
2023-03-26T18:42:23.677Z,72.23
2023-03-26T18:47:29.233Z,72.03
2023-03-26T18:52:33.518Z,72.04
2023-03-26T18:57:36.486Z,72.14
2023-03-26T19:02:39.802Z,72.26
2023-03-26T19:07:45.790Z,72.39
2023-03-26T19:13:14.474Z,72.36
2023-03-26T19:18:18.639Z,72.45
2023-03-26T19:23:57.625Z,72.54
2023-03-26T19:29:00.739Z,72.27
2023-03-26T19:34:13.559Z,72.51
2023-03-26T19:39:46.167Z,72.46
2023-03-26T19:45:19.317Z,72.78
2023-03-26T19:50:26.484Z,72.72
2023-03-26T19:55:30.602Z,72.82
2023-03-26T20:00:33.902Z,72.52
2023-03-26T20:05:37.431Z,72.82
2023-03-26T20:10:41.657Z,72.76
2023-03-26T20:15:47.132Z,72.85
2023-03-26T20:20:50.630Z,72.81
2023-03-26T20:25:54.930Z,73.00
2023-03-26T20:30:58.062Z,72.87
2023-03-26T20:36:01.678Z,72.73
2023-03-26T20:41:06.155Z,72.75
2023-03-26T20:46:12.301Z,72.63
2023-03-26T20:51:15.562Z,72.76
2023-03-26T20:56:21.800Z,72.82
2023-03-26T21:01:24.992Z,72.13
2023-03-26T21:06:27.759Z,70.95
2023-03-26T21:11:46.756Z,69.82
2023-03-26T21:16:50.044Z,67.88
2023-03-26T21:21:59.072Z,66.37
2023-03-26T21:27:09.970Z,65.20
2023-03-26T21:32:14.297Z,64.14
2023-03-26T21:37:18.827Z,63.62
2023-03-26T21:48:30.018Z,62.86
2023-03-26T21:53:33.174Z,62.65
2023-03-26T21:58:45.941Z,62.29
2023-03-26T22:03:56.826Z,62.46
2023-03-26T22:09:00.491Z,62.53
2023-03-26T22:14:03.211Z,62.29
2023-03-26T22:19:07.369Z,62.67
2023-03-26T22:25:02.897Z,62.63
2023-03-26T22:30:06.486Z,62.66
2023-03-26T22:35:20.573Z,63.01
2023-03-26T22:40:23.348Z,62.92
2023-03-26T22:45:26.141Z,63.12
2023-03-26T22:50:30.414Z,63.14
2023-03-26T22:55:33.147Z,63.45
2023-03-26T23:00:36.173Z,63.12
2023-03-26T23:05:40.276Z,63.29
2023-03-26T23:10:43.907Z,63.47
2023-03-26T23:15:49.619Z,63.55
2023-03-26T23:20:55.371Z,63.78
2023-03-26T23:25:59.766Z,64.00
2023-03-26T23:31:04.250Z,64.21
2023-03-26T23:36:09.721Z,64.32
2023-03-26T23:41:15.267Z,64.57
2023-03-26T23:46:22.029Z,64.61
2023-03-26T23:51:26.294Z,64.53
2023-03-26T23:56:29.678Z,64.69
